sensor_id;sensor_type;location;lat;lon;timestamp;P1;durP1;ratioP1;P2;durP2;ratioP2
73030;SDS011;61206;50.816;6.012;2022-07-06T00:00:35;2.30;;;1.10;;
73030;SDS011;61206;50.816;6.012;2022-07-06T00:03:01;1.77;;;1.17;;
73030;SDS011;61206;50.816;6.012;2022-07-06T00:05:30;1.80;;;1.27;;
73030;SDS011;61206;50.816;6.012;2022-07-06T00:07:55;1.87;;;1.10;;
73030;SDS011;61206;50.816;6.012;2022-07-06T00:10:21;2.33;;;1.30;;
73030;SDS011;61206;50.816;6.012;2022-07-06T00:12:49;2.90;;;1.35;;
73030;SDS011;61206;50.816;6.012;2022-07-06T00:15:20;2.30;;;1.30;;
73030;SDS011;61206;50.816;6.012;2022-07-06T00:17:46;2.28;;;1.25;;
73030;SDS011;61206;50.816;6.012;2022-07-06T00:20:11;1.65;;;1.08;;
73030;SDS011;61206;50.816;6.012;2022-07-06T00:22:37;2.40;;;1.33;;
73030;SDS011;61206;50.816;6.012;2022-07-06T00:25:09;2.78;;;1.48;;
73030;SDS011;61206;50.816;6.012;2022-07-06T00:27:35;2.05;;;1.40;;
73030;SDS011;61206;50.816;6.012;2022-07-06T00:30:07;1.58;;;1.20;;
73030;SDS011;61206;50.816;6.012;2022-07-06T00:32:36;2.93;;;1.30;;
73030;SDS011;61206;50.816;6.012;2022-07-06T00:35:01;2.23;;;1.30;;
73030;SDS011;61206;50.816;6.012;2022-07-06T00:37:30;2.65;;;1.50;;
73030;SDS011;61206;50.816;6.012;2022-07-06T00:39:55;2.53;;;1.20;;
73030;SDS011;61206;50.816;6.012;2022-07-06T00:42:21;2.00;;;1.20;;
73030;SDS011;61206;50.816;6.012;2022-07-06T00:44:46;2.90;;;1.30;;
73030;SDS011;61206;50.816;6.012;2022-07-06T00:47:14;2.05;;;1.33;;
73030;SDS011;61206;50.816;6.012;2022-07-06T00:49:40;2.47;;;1.30;;
73030;SDS011;61206;50.816;6.012;2022-07-06T00:52:24;2.20;;;1.40;;
73030;SDS011;61206;50.816;6.012;2022-07-06T00:54:49;1.50;;;1.17;;
73030;SDS011;61206;50.816;6.012;2022-07-06T00:57:17;2.72;;;1.38;;
73030;SDS011;61206;50.816;6.012;2022-07-06T00:59:43;2.00;;;1.30;;
73030;SDS011;61206;50.816;6.012;2022-07-06T01:02:08;2.88;;;1.50;;
73030;SDS011;61206;50.816;6.012;2022-07-06T01:04:34;2.67;;;1.30;;
73030;SDS011;61206;50.816;6.012;2022-07-06T01:07:00;2.60;;;1.33;;
73030;SDS011;61206;50.816;6.012;2022-07-06T01:09:26;1.75;;;1.23;;
73030;SDS011;61206;50.816;6.012;2022-07-06T01:11:52;2.47;;;1.40;;
73030;SDS011;61206;50.816;6.012;2022-07-06T01:14:18;2.77;;;1.50;;
73030;SDS011;61206;50.816;6.012;2022-07-06T01:16:45;1.63;;;1.20;;
73030;SDS011;61206;50.816;6.012;2022-07-06T01:19:13;1.98;;;1.25;;
73030;SDS011;61206;50.816;6.012;2022-07-06T01:21:41;1.70;;;1.17;;
73030;SDS011;61206;50.816;6.012;2022-07-06T01:24:07;2.90;;;1.20;;
73030;SDS011;61206;50.816;6.012;2022-07-06T01:26:36;2.25;;;1.20;;
73030;SDS011;61206;50.816;6.012;2022-07-06T01:29:02;2.60;;;1.33;;
73030;SDS011;61206;50.816;6.012;2022-07-06T01:31:28;2.17;;;1.40;;
73030;SDS011;61206;50.816;6.012;2022-07-06T01:33:56;1.88;;;1.15;;
73030;SDS011;61206;50.816;6.012;2022-07-06T01:36:22;1.60;;;1.10;;
73030;SDS011;61206;50.816;6.012;2022-07-06T01:38:49;1.92;;;1.20;;
73030;SDS011;61206;50.816;6.012;2022-07-06T01:41:19;2.83;;;1.25;;
73030;SDS011;61206;50.816;6.012;2022-07-06T01:43:45;3.35;;;1.60;;
73030;SDS011;61206;50.816;6.012;2022-07-06T01:46:11;1.90;;;1.20;;
73030;SDS011;61206;50.816;6.012;2022-07-06T01:48:41;2.60;;;1.63;;
73030;SDS011;61206;50.816;6.012;2022-07-06T01:51:06;1.60;;;1.20;;
73030;SDS011;61206;50.816;6.012;2022-07-06T01:53:34;2.83;;;1.40;;
73030;SDS011;61206;50.816;6.012;2022-07-06T01:56:00;2.67;;;1.30;;
73030;SDS011;61206;50.816;6.012;2022-07-06T01:58:28;2.47;;;1.37;;
73030;SDS011;61206;50.816;6.012;2022-07-06T02:00:54;2.53;;;1.50;;
73030;SDS011;61206;50.816;6.012;2022-07-06T02:03:21;2.88;;;1.50;;
73030;SDS011;61206;50.816;6.012;2022-07-06T02:05:47;3.33;;;1.60;;
73030;SDS011;61206;50.816;6.012;2022-07-06T02:08:17;2.55;;;1.30;;
73030;SDS011;61206;50.816;6.012;2022-07-06T02:10:43;2.33;;;1.33;;
73030;SDS011;61206;50.816;6.012;2022-07-06T02:13:08;2.80;;;1.52;;
73030;SDS011;61206;50.816;6.012;2022-07-06T02:15:34;1.60;;;1.20;;
73030;SDS011;61206;50.816;6.012;2022-07-06T02:17:59;2.43;;;1.30;;
73030;SDS011;61206;50.816;6.012;2022-07-06T02:20:28;2.35;;;1.38;;
73030;SDS011;61206;50.816;6.012;2022-07-06T02:22:53;2.85;;;1.77;;
73030;SDS011;61206;50.816;6.012;2022-07-06T02:25:19;3.37;;;1.70;;
73030;SDS011;61206;50.816;6.012;2022-07-06T02:27:47;2.43;;;1.50;;
73030;SDS011;61206;50.816;6.012;2022-07-06T02:30:13;2.22;;;1.48;;
73030;SDS011;61206;50.816;6.012;2022-07-06T02:32:38;2.77;;;1.70;;
73030;SDS011;61206;50.816;6.012;2022-07-06T02:35:04;2.90;;;1.50;;
73030;SDS011;61206;50.816;6.012;2022-07-06T02:37:29;2.35;;;1.35;;
73030;SDS011;61206;50.816;6.012;2022-07-06T02:39:55;3.00;;;1.50;;
73030;SDS011;61206;50.816;6.012;2022-07-06T02:42:20;3.67;;;1.53;;
73030;SDS011;61206;50.816;6.012;2022-07-06T02:44:46;2.50;;;1.42;;
73030;SDS011;61206;50.816;6.012;2022-07-06T02:47:13;2.70;;;1.70;;
73030;SDS011;61206;50.816;6.012;2022-07-06T02:49:45;2.63;;;1.48;;
73030;SDS011;61206;50.816;6.012;2022-07-06T02:52:11;2.40;;;1.50;;
73030;SDS011;61206;50.816;6.012;2022-07-06T02:54:36;2.87;;;1.50;;
73030;SDS011;61206;50.816;6.012;2022-07-06T02:57:05;3.20;;;1.80;;
73030;SDS011;61206;50.816;6.012;2022-07-06T02:59:31;2.57;;;1.30;;
73030;SDS011;61206;50.816;6.012;2022-07-06T03:01:56;3.35;;;1.67;;
73030;SDS011;61206;50.816;6.012;2022-07-06T03:04:22;3.03;;;1.60;;
73030;SDS011;61206;50.816;6.012;2022-07-06T03:06:47;2.97;;;1.88;;
73030;SDS011;61206;50.816;6.012;2022-07-06T03:09:13;3.50;;;1.93;;
73030;SDS011;61206;50.816;6.012;2022-07-06T03:11:42;2.72;;;1.60;;
73030;SDS011;61206;50.816;6.012;2022-07-06T03:14:07;3.42;;;1.63;;
73030;SDS011;61206;50.816;6.012;2022-07-06T03:16:36;2.83;;;1.60;;
73030;SDS011;61206;50.816;6.012;2022-07-06T03:19:01;2.95;;;1.60;;
73030;SDS011;61206;50.816;6.012;2022-07-06T03:21:30;2.60;;;1.73;;
73030;SDS011;61206;50.816;6.012;2022-07-06T03:24:01;3.13;;;1.50;;
73030;SDS011;61206;50.816;6.012;2022-07-06T03:26:30;3.47;;;1.80;;
73030;SDS011;61206;50.816;6.012;2022-07-06T03:28:55;4.22;;;1.90;;
73030;SDS011;61206;50.816;6.012;2022-07-06T03:31:21;3.07;;;1.77;;
73030;SDS011;61206;50.816;6.012;2022-07-06T03:33:46;4.53;;;1.88;;
73030;SDS011;61206;50.816;6.012;2022-07-06T03:36:14;2.87;;;1.70;;
73030;SDS011;61206;50.816;6.012;2022-07-06T03:38:40;2.83;;;1.80;;
73030;SDS011;61206;50.816;6.012;2022-07-06T03:41:06;2.78;;;1.52;;
73030;SDS011;61206;50.816;6.012;2022-07-06T03:43:34;5.87;;;2.20;;
73030;SDS011;61206;50.816;6.012;2022-07-06T03:46:01;3.33;;;1.90;;
73030;SDS011;61206;50.816;6.012;2022-07-06T03:48:26;4.00;;;1.50;;
73030;SDS011;61206;50.816;6.012;2022-07-06T03:50:52;3.13;;;1.90;;
73030;SDS011;61206;50.816;6.012;2022-07-06T03:53:18;3.40;;;1.88;;
73030;SDS011;61206;50.816;6.012;2022-07-06T03:55:44;2.57;;;1.73;;
73030;SDS011;61206;50.816;6.012;2022-07-06T03:58:29;2.72;;;1.60;;
73030;SDS011;61206;50.816;6.012;2022-07-06T04:00:59;3.38;;;1.80;;
73030;SDS011;61206;50.816;6.012;2022-07-06T04:03:25;3.15;;;1.90;;
73030;SDS011;61206;50.816;6.012;2022-07-06T04:06:00;3.70;;;1.70;;
73030;SDS011;61206;50.816;6.012;2022-07-06T04:08:25;3.50;;;1.83;;
73030;SDS011;61206;50.816;6.012;2022-07-06T04:10:53;4.25;;;1.85;;
73030;SDS011;61206;50.816;6.012;2022-07-06T04:13:19;3.22;;;1.92;;
73030;SDS011;61206;50.816;6.012;2022-07-06T04:15:48;3.63;;;1.87;;
73030;SDS011;61206;50.816;6.012;2022-07-06T04:18:13;3.10;;;1.92;;
73030;SDS011;61206;50.816;6.012;2022-07-06T04:20:39;3.77;;;1.83;;
73030;SDS011;61206;50.816;6.012;2022-07-06T04:23:07;4.15;;;2.30;;
73030;SDS011;61206;50.816;6.012;2022-07-06T04:25:37;4.53;;;1.83;;
73030;SDS011;61206;50.816;6.012;2022-07-06T04:28:03;3.38;;;1.92;;
73030;SDS011;61206;50.816;6.012;2022-07-06T04:30:32;3.42;;;1.67;;
73030;SDS011;61206;50.816;6.012;2022-07-06T04:32:58;3.23;;;1.80;;
73030;SDS011;61206;50.816;6.012;2022-07-06T04:35:26;3.80;;;1.80;;
73030;SDS011;61206;50.816;6.012;2022-07-06T04:37:55;3.90;;;2.10;;
73030;SDS011;61206;50.816;6.012;2022-07-06T04:40:20;3.08;;;1.70;;
73030;SDS011;61206;50.816;6.012;2022-07-06T04:42:46;3.28;;;2.00;;
73030;SDS011;61206;50.816;6.012;2022-07-06T04:45:12;3.70;;;1.80;;
73030;SDS011;61206;50.816;6.012;2022-07-06T04:47:37;3.85;;;2.20;;
73030;SDS011;61206;50.816;6.012;2022-07-06T04:50:07;3.23;;;1.93;;
73030;SDS011;61206;50.816;6.012;2022-07-06T04:52:35;3.22;;;1.83;;
73030;SDS011;61206;50.816;6.012;2022-07-06T04:55:01;4.07;;;2.20;;
73030;SDS011;61206;50.816;6.012;2022-07-06T04:57:27;3.67;;;2.00;;
73030;SDS011;61206;50.816;6.012;2022-07-06T04:59:54;3.67;;;2.03;;
73030;SDS011;61206;50.816;6.012;2022-07-06T05:02:23;4.40;;;2.10;;
73030;SDS011;61206;50.816;6.012;2022-07-06T05:04:49;3.40;;;2.08;;
73030;SDS011;61206;50.816;6.012;2022-07-06T05:07:14;2.80;;;1.90;;
73030;SDS011;61206;50.816;6.012;2022-07-06T05:09:42;3.95;;;2.10;;
73030;SDS011;61206;50.816;6.012;2022-07-06T05:12:08;3.23;;;2.13;;
73030;SDS011;61206;50.816;6.012;2022-07-06T05:14:37;3.53;;;2.40;;
73030;SDS011;61206;50.816;6.012;2022-07-06T05:17:03;3.53;;;2.00;;
73030;SDS011;61206;50.816;6.012;2022-07-06T05:19:32;3.25;;;2.25;;
73030;SDS011;61206;50.816;6.012;2022-07-06T05:21:57;3.13;;;1.90;;
73030;SDS011;61206;50.816;6.012;2022-07-06T05:24:23;2.47;;;1.80;;
73030;SDS011;61206;50.816;6.012;2022-07-06T05:26:56;2.90;;;1.70;;
73030;SDS011;61206;50.816;6.012;2022-07-06T05:29:21;4.35;;;2.50;;
73030;SDS011;61206;50.816;6.012;2022-07-06T05:31:47;2.77;;;1.90;;
73030;SDS011;61206;50.816;6.012;2022-07-06T05:34:12;4.82;;;2.30;;
73030;SDS011;61206;50.816;6.012;2022-07-06T05:36:41;4.07;;;1.77;;
73030;SDS011;61206;50.816;6.012;2022-07-06T05:39:06;3.17;;;2.00;;
73030;SDS011;61206;50.816;6.012;2022-07-06T05:41:32;2.90;;;1.80;;
73030;SDS011;61206;50.816;6.012;2022-07-06T05:43:57;3.27;;;2.23;;
73030;SDS011;61206;50.816;6.012;2022-07-06T05:46:22;3.20;;;1.80;;
73030;SDS011;61206;50.816;6.012;2022-07-06T05:48:49;3.43;;;2.03;;
73030;SDS011;61206;50.816;6.012;2022-07-06T05:51:36;2.70;;;1.88;;
73030;SDS011;61206;50.816;6.012;2022-07-06T05:54:02;3.40;;;2.20;;
73030;SDS011;61206;50.816;6.012;2022-07-06T05:56:27;2.67;;;1.80;;
73030;SDS011;61206;50.816;6.012;2022-07-06T05:58:53;2.93;;;1.77;;
73030;SDS011;61206;50.816;6.012;2022-07-06T06:01:18;3.90;;;1.70;;
73030;SDS011;61206;50.816;6.012;2022-07-06T06:03:43;3.75;;;2.08;;
73030;SDS011;61206;50.816;6.012;2022-07-06T06:06:09;2.63;;;1.63;;
73030;SDS011;61206;50.816;6.012;2022-07-06T06:08:39;4.40;;;1.97;;
73030;SDS011;61206;50.816;6.012;2022-07-06T06:11:07;4.25;;;1.90;;
73030;SDS011;61206;50.816;6.012;2022-07-06T06:13:33;3.25;;;2.00;;
73030;SDS011;61206;50.816;6.012;2022-07-06T06:16:00;3.00;;;1.80;;
73030;SDS011;61206;50.816;6.012;2022-07-06T06:18:25;3.40;;;1.83;;
73030;SDS011;61206;50.816;6.012;2022-07-06T06:20:50;2.57;;;1.90;;
73030;SDS011;61206;50.816;6.012;2022-07-06T06:23:16;2.72;;;1.80;;
73030;SDS011;61206;50.816;6.012;2022-07-06T06:25:41;2.47;;;1.60;;
73030;SDS011;61206;50.816;6.012;2022-07-06T06:28:08;2.50;;;1.43;;
73030;SDS011;61206;50.816;6.012;2022-07-06T06:30:35;2.33;;;1.47;;
73030;SDS011;61206;50.816;6.012;2022-07-06T06:33:12;2.40;;;1.52;;
73030;SDS011;61206;50.816;6.012;2022-07-06T06:35:41;3.13;;;1.63;;
73030;SDS011;61206;50.816;6.012;2022-07-06T06:38:08;2.65;;;1.60;;
73030;SDS011;61206;50.816;6.012;2022-07-06T06:40:33;2.70;;;1.80;;
73030;SDS011;61206;50.816;6.012;2022-07-06T06:42:59;3.35;;;1.63;;
73030;SDS011;61206;50.816;6.012;2022-07-06T06:45:24;2.37;;;1.60;;
73030;SDS011;61206;50.816;6.012;2022-07-06T06:47:50;3.40;;;1.80;;
73030;SDS011;61206;50.816;6.012;2022-07-06T06:50:15;2.78;;;1.30;;
73030;SDS011;61206;50.816;6.012;2022-07-06T06:52:42;2.50;;;1.60;;
73030;SDS011;61206;50.816;6.012;2022-07-06T06:55:08;2.03;;;1.40;;
73030;SDS011;61206;50.816;6.012;2022-07-06T06:57:34;2.90;;;1.80;;
73030;SDS011;61206;50.816;6.012;2022-07-06T07:00:01;3.53;;;1.75;;
73030;SDS011;61206;50.816;6.012;2022-07-06T07:02:26;3.60;;;1.57;;
73030;SDS011;61206;50.816;6.012;2022-07-06T07:04:52;2.77;;;1.60;;
73030;SDS011;61206;50.816;6.012;2022-07-06T07:07:17;3.13;;;1.73;;
73030;SDS011;61206;50.816;6.012;2022-07-06T07:09:43;2.97;;;1.60;;
73030;SDS011;61206;50.816;6.012;2022-07-06T07:12:08;2.35;;;1.83;;
73030;SDS011;61206;50.816;6.012;2022-07-06T07:14:35;2.10;;;1.57;;
73030;SDS011;61206;50.816;6.012;2022-07-06T07:17:00;2.90;;;1.60;;
73030;SDS011;61206;50.816;6.012;2022-07-06T07:19:32;2.90;;;1.75;;
73030;SDS011;61206;50.816;6.012;2022-07-06T07:22:07;2.15;;;1.55;;
73030;SDS011;61206;50.816;6.012;2022-07-06T07:24:34;2.10;;;1.50;;
73030;SDS011;61206;50.816;6.012;2022-07-06T07:27:00;1.73;;;1.10;;
73030;SDS011;61206;50.816;6.012;2022-07-06T07:29:25;2.60;;;1.40;;
73030;SDS011;61206;50.816;6.012;2022-07-06T07:31:51;2.10;;;1.50;;
73030;SDS011;61206;50.816;6.012;2022-07-06T07:34:17;2.28;;;1.50;;
73030;SDS011;61206;50.816;6.012;2022-07-06T07:36:43;2.00;;;1.50;;
73030;SDS011;61206;50.816;6.012;2022-07-06T07:39:08;1.40;;;1.07;;
73030;SDS011;61206;50.816;6.012;2022-07-06T07:41:37;1.93;;;1.07;;
73030;SDS011;61206;50.816;6.012;2022-07-06T07:44:04;1.60;;;1.20;;
73030;SDS011;61206;50.816;6.012;2022-07-06T07:46:32;2.33;;;1.30;;
73030;SDS011;61206;50.816;6.012;2022-07-06T07:49:00;2.03;;;1.10;;
73030;SDS011;61206;50.816;6.012;2022-07-06T07:51:47;1.23;;;0.90;;
73030;SDS011;61206;50.816;6.012;2022-07-06T07:54:13;1.70;;;1.00;;
73030;SDS011;61206;50.816;6.012;2022-07-06T07:56:38;1.50;;;1.00;;
73030;SDS011;61206;50.816;6.012;2022-07-06T08:01:55;1.40;;;1.20;;
73030;SDS011;61206;50.816;6.012;2022-07-06T08:04:21;1.75;;;1.10;;
73030;SDS011;61206;50.816;6.012;2022-07-06T08:06:46;1.03;;;0.90;;
73030;SDS011;61206;50.816;6.012;2022-07-06T08:09:12;1.42;;;0.90;;
73030;SDS011;61206;50.816;6.012;2022-07-06T08:32:10;1.42;;;1.00;;
73030;SDS011;61206;50.816;6.012;2022-07-06T08:34:38;1.98;;;1.02;;
73030;SDS011;61206;50.816;6.012;2022-07-06T08:37:06;1.43;;;1.00;;
73030;SDS011;61206;50.816;6.012;2022-07-06T08:39:32;2.47;;;1.33;;
73030;SDS011;61206;50.816;6.012;2022-07-06T08:41:58;2.58;;;1.20;;
73030;SDS011;61206;50.816;6.012;2022-07-06T08:44:29;1.05;;;0.95;;
73030;SDS011;61206;50.816;6.012;2022-07-06T08:46:58;1.98;;;1.00;;
73030;SDS011;61206;50.816;6.012;2022-07-06T08:49:36;3.15;;;1.13;;
73030;SDS011;61206;50.816;6.012;2022-07-06T08:52:02;1.10;;;0.83;;
73030;SDS011;61206;50.816;6.012;2022-07-06T08:57:05;1.23;;;0.80;;
73030;SDS011;61206;50.816;6.012;2022-07-06T08:59:31;1.67;;;0.95;;
73030;SDS011;61206;50.816;6.012;2022-07-06T09:01:57;1.37;;;1.23;;
73030;SDS011;61206;50.816;6.012;2022-07-06T09:04:25;1.63;;;1.03;;
73030;SDS011;61206;50.816;6.012;2022-07-06T09:06:51;1.50;;;0.80;;
73030;SDS011;61206;50.816;6.012;2022-07-06T09:09:28;1.77;;;0.80;;
73030;SDS011;61206;50.816;6.012;2022-07-06T09:11:58;1.20;;;1.10;;
73030;SDS011;61206;50.816;6.012;2022-07-06T09:14:26;1.00;;;0.80;;
73030;SDS011;61206;50.816;6.012;2022-07-06T09:17:00;1.08;;;0.88;;
73030;SDS011;61206;50.816;6.012;2022-07-06T09:19:33;2.22;;;0.80;;
73030;SDS011;61206;50.816;6.012;2022-07-06T09:22:00;1.20;;;1.10;;
73030;SDS011;61206;50.816;6.012;2022-07-06T09:24:27;1.33;;;1.08;;
73030;SDS011;61206;50.816;6.012;2022-07-06T09:26:56;1.70;;;0.97;;
73030;SDS011;61206;50.816;6.012;2022-07-06T09:29:32;1.50;;;0.80;;
73030;SDS011;61206;50.816;6.012;2022-07-06T09:32:02;0.82;;;0.70;;
73030;SDS011;61206;50.816;6.012;2022-07-06T09:48:04;1.35;;;0.80;;
73030;SDS011;61206;50.816;6.012;2022-07-06T09:53:06;1.77;;;0.97;;
73030;SDS011;61206;50.816;6.012;2022-07-06T09:58:30;1.08;;;0.70;;
73030;SDS011;61206;50.816;6.012;2022-07-06T10:00:58;0.95;;;0.70;;
73030;SDS011;61206;50.816;6.012;2022-07-06T10:03:24;1.25;;;1.15;;
73030;SDS011;61206;50.816;6.012;2022-07-06T10:05:49;1.40;;;1.00;;
73030;SDS011;61206;50.816;6.012;2022-07-06T10:08:16;1.17;;;1.08;;
73030;SDS011;61206;50.816;6.012;2022-07-06T10:10:43;1.00;;;0.90;;
73030;SDS011;61206;50.816;6.012;2022-07-06T10:13:10;1.02;;;0.80;;
73030;SDS011;61206;50.816;6.012;2022-07-06T10:15:39;1.02;;;0.68;;
73030;SDS011;61206;50.816;6.012;2022-07-06T10:18:09;1.30;;;1.00;;
73030;SDS011;61206;50.816;6.012;2022-07-06T10:20:38;1.30;;;0.88;;
73030;SDS011;61206;50.816;6.012;2022-07-06T10:23:06;0.90;;;0.80;;
73030;SDS011;61206;50.816;6.012;2022-07-06T10:25:37;0.88;;;0.82;;
73030;SDS011;61206;50.816;6.012;2022-07-06T10:28:07;1.95;;;1.00;;
73030;SDS011;61206;50.816;6.012;2022-07-06T10:30:40;1.27;;;1.00;;
73030;SDS011;61206;50.816;6.012;2022-07-06T10:33:07;1.30;;;1.00;;
73030;SDS011;61206;50.816;6.012;2022-07-06T10:35:37;1.20;;;0.90;;
73030;SDS011;61206;50.816;6.012;2022-07-06T10:38:05;1.52;;;0.98;;
73030;SDS011;61206;50.816;6.012;2022-07-06T10:40:34;0.93;;;0.80;;
73030;SDS011;61206;50.816;6.012;2022-07-06T10:43:22;2.40;;;1.17;;
73030;SDS011;61206;50.816;6.012;2022-07-06T10:50:49;1.45;;;1.05;;
73030;SDS011;61206;50.816;6.012;2022-07-06T10:53:26;1.10;;;0.80;;
73030;SDS011;61206;50.816;6.012;2022-07-06T10:55:56;1.13;;;1.02;;
73030;SDS011;61206;50.816;6.012;2022-07-06T10:58:41;1.20;;;0.80;;
73030;SDS011;61206;50.816;6.012;2022-07-06T11:01:16;0.93;;;0.73;;
73030;SDS011;61206;50.816;6.012;2022-07-06T11:03:49;0.90;;;0.80;;
73030;SDS011;61206;50.816;6.012;2022-07-06T11:06:33;2.20;;;0.90;;
73030;SDS011;61206;50.816;6.012;2022-07-06T11:09:07;1.00;;;0.90;;
73030;SDS011;61206;50.816;6.012;2022-07-06T11:14:01;1.02;;;0.85;;
73030;SDS011;61206;50.816;6.012;2022-07-06T11:24:13;1.70;;;1.10;;
73030;SDS011;61206;50.816;6.012;2022-07-06T11:26:44;0.93;;;0.70;;
73030;SDS011;61206;50.816;6.012;2022-07-06T11:29:11;1.10;;;1.00;;
73030;SDS011;61206;50.816;6.012;2022-07-06T11:31:39;1.95;;;1.23;;
73030;SDS011;61206;50.816;6.012;2022-07-06T11:34:17;1.45;;;1.08;;
73030;SDS011;61206;50.816;6.012;2022-07-06T11:36:44;1.35;;;0.90;;
73030;SDS011;61206;50.816;6.012;2022-07-06T11:39:09;1.00;;;0.90;;
73030;SDS011;61206;50.816;6.012;2022-07-06T11:41:36;1.05;;;0.93;;
73030;SDS011;61206;50.816;6.012;2022-07-06T11:44:06;2.08;;;1.15;;
73030;SDS011;61206;50.816;6.012;2022-07-06T11:46:35;0.90;;;0.77;;
73030;SDS011;61206;50.816;6.012;2022-07-06T11:51:32;1.20;;;1.10;;
73030;SDS011;61206;50.816;6.012;2022-07-06T11:54:01;1.60;;;1.00;;
73030;SDS011;61206;50.816;6.012;2022-07-06T11:56:42;1.10;;;0.90;;
73030;SDS011;61206;50.816;6.012;2022-07-06T11:59:15;1.47;;;1.13;;
73030;SDS011;61206;50.816;6.012;2022-07-06T12:01:42;1.05;;;0.73;;
73030;SDS011;61206;50.816;6.012;2022-07-06T12:04:09;0.90;;;0.80;;
73030;SDS011;61206;50.816;6.012;2022-07-06T12:06:38;1.75;;;1.10;;
73030;SDS011;61206;50.816;6.012;2022-07-06T12:09:07;2.30;;;1.05;;
73030;SDS011;61206;50.816;6.012;2022-07-06T12:11:39;1.20;;;0.85;;
73030;SDS011;61206;50.816;6.012;2022-07-06T12:14:13;1.27;;;0.80;;
73030;SDS011;61206;50.816;6.012;2022-07-06T12:16:41;1.90;;;1.20;;
73030;SDS011;61206;50.816;6.012;2022-07-06T12:19:10;0.70;;;0.70;;
73030;SDS011;61206;50.816;6.012;2022-07-06T12:21:45;0.93;;;0.75;;
73030;SDS011;61206;50.816;6.012;2022-07-06T12:24:23;1.30;;;1.20;;
73030;SDS011;61206;50.816;6.012;2022-07-06T12:26:50;1.20;;;1.10;;
73030;SDS011;61206;50.816;6.012;2022-07-06T12:29:17;1.15;;;0.82;;
73030;SDS011;61206;50.816;6.012;2022-07-06T12:31:53;0.80;;;0.70;;
73030;SDS011;61206;50.816;6.012;2022-07-06T12:34:21;1.27;;;1.05;;
73030;SDS011;61206;50.816;6.012;2022-07-06T12:36:51;1.70;;;1.00;;
73030;SDS011;61206;50.816;6.012;2022-07-06T12:39:23;1.00;;;0.83;;
73030;SDS011;61206;50.816;6.012;2022-07-06T12:41:51;1.30;;;1.20;;
73030;SDS011;61206;50.816;6.012;2022-07-06T12:44:20;1.00;;;0.90;;
73030;SDS011;61206;50.816;6.012;2022-07-06T12:46:48;1.45;;;1.08;;
73030;SDS011;61206;50.816;6.012;2022-07-06T12:49:32;1.15;;;1.05;;
73030;SDS011;61206;50.816;6.012;2022-07-06T12:52:00;1.10;;;1.00;;
73030;SDS011;61206;50.816;6.012;2022-07-06T12:54:39;1.45;;;0.90;;
73030;SDS011;61206;50.816;6.012;2022-07-06T12:57:18;1.52;;;1.23;;
73030;SDS011;61206;50.816;6.012;2022-07-06T12:59:53;2.00;;;1.20;;
73030;SDS011;61206;50.816;6.012;2022-07-06T13:02:26;1.95;;;0.80;;
73030;SDS011;61206;50.816;6.012;2022-07-06T13:05:03;0.80;;;0.73;;
73030;SDS011;61206;50.816;6.012;2022-07-06T13:07:32;2.37;;;1.20;;
73030;SDS011;61206;50.816;6.012;2022-07-06T13:10:07;1.75;;;1.05;;
73030;SDS011;61206;50.816;6.012;2022-07-06T13:12:35;1.88;;;1.20;;
73030;SDS011;61206;50.816;6.012;2022-07-06T13:15:02;1.83;;;0.90;;
73030;SDS011;61206;50.816;6.012;2022-07-06T13:17:29;1.30;;;1.08;;
73030;SDS011;61206;50.816;6.012;2022-07-06T13:19:55;1.00;;;0.80;;
73030;SDS011;61206;50.816;6.012;2022-07-06T13:22:20;1.83;;;1.10;;
73030;SDS011;61206;50.816;6.012;2022-07-06T13:24:47;1.35;;;1.08;;
73030;SDS011;61206;50.816;6.012;2022-07-06T13:27:12;1.30;;;0.93;;
73030;SDS011;61206;50.816;6.012;2022-07-06T13:29:38;2.63;;;1.50;;
73030;SDS011;61206;50.816;6.012;2022-07-06T13:32:06;1.50;;;1.20;;
73030;SDS011;61206;50.816;6.012;2022-07-06T13:34:34;2.33;;;1.70;;
73030;SDS011;61206;50.816;6.012;2022-07-06T13:37:00;1.42;;;1.33;;
73030;SDS011;61206;50.816;6.012;2022-07-06T13:39:26;1.58;;;1.40;;
73030;SDS011;61206;50.816;6.012;2022-07-06T13:41:52;1.30;;;0.90;;
73030;SDS011;61206;50.816;6.012;2022-07-06T13:44:21;2.07;;;1.33;;
73030;SDS011;61206;50.816;6.012;2022-07-06T13:46:50;1.23;;;1.00;;
73030;SDS011;61206;50.816;6.012;2022-07-06T13:49:16;2.28;;;1.10;;
73030;SDS011;61206;50.816;6.012;2022-07-06T13:51:45;1.30;;;1.10;;
73030;SDS011;61206;50.816;6.012;2022-07-06T13:54:11;1.63;;;1.13;;
73030;SDS011;61206;50.816;6.012;2022-07-06T13:56:37;2.20;;;1.50;;
73030;SDS011;61206;50.816;6.012;2022-07-06T13:59:11;1.50;;;1.10;;
73030;SDS011;61206;50.816;6.012;2022-07-06T14:01:37;2.58;;;1.10;;
73030;SDS011;61206;50.816;6.012;2022-07-06T14:04:02;2.28;;;1.17;;
73030;SDS011;61206;50.816;6.012;2022-07-06T14:06:28;1.73;;;1.40;;
73030;SDS011;61206;50.816;6.012;2022-07-06T14:08:55;2.65;;;1.48;;
73030;SDS011;61206;50.816;6.012;2022-07-06T14:11:21;2.08;;;1.40;;
73030;SDS011;61206;50.816;6.012;2022-07-06T14:13:47;7.07;;;2.13;;
73030;SDS011;61206;50.816;6.012;2022-07-06T14:16:12;6.47;;;2.20;;
73030;SDS011;61206;50.816;6.012;2022-07-06T14:18:38;4.57;;;1.60;;
73030;SDS011;61206;50.816;6.012;2022-07-06T14:21:10;1.90;;;1.42;;
73030;SDS011;61206;50.816;6.012;2022-07-06T14:23:36;3.30;;;1.80;;
73030;SDS011;61206;50.816;6.012;2022-07-06T14:26:02;2.03;;;1.10;;
73030;SDS011;61206;50.816;6.012;2022-07-06T14:28:27;2.33;;;1.30;;
73030;SDS011;61206;50.816;6.012;2022-07-06T14:30:54;1.50;;;1.30;;
73030;SDS011;61206;50.816;6.012;2022-07-06T14:33:23;2.50;;;1.17;;
73030;SDS011;61206;50.816;6.012;2022-07-06T14:35:48;3.15;;;1.40;;
73030;SDS011;61206;50.816;6.012;2022-07-06T14:38:17;2.10;;;1.50;;
73030;SDS011;61206;50.816;6.012;2022-07-06T14:40:44;2.50;;;1.70;;
73030;SDS011;61206;50.816;6.012;2022-07-06T14:43:09;2.43;;;1.70;;
73030;SDS011;61206;50.816;6.012;2022-07-06T14:45:35;2.28;;;1.35;;
73030;SDS011;61206;50.816;6.012;2022-07-06T14:48:01;2.80;;;1.70;;
73030;SDS011;61206;50.816;6.012;2022-07-06T14:50:27;4.63;;;1.30;;
73030;SDS011;61206;50.816;6.012;2022-07-06T14:52:53;2.42;;;1.60;;
73030;SDS011;61206;50.816;6.012;2022-07-06T14:55:22;3.88;;;1.50;;
73030;SDS011;61206;50.816;6.012;2022-07-06T14:57:52;3.00;;;1.30;;
73030;SDS011;61206;50.816;6.012;2022-07-06T15:00:20;3.53;;;1.83;;
73030;SDS011;61206;50.816;6.012;2022-07-06T15:02:46;2.08;;;1.58;;
73030;SDS011;61206;50.816;6.012;2022-07-06T15:05:12;2.25;;;1.55;;
73030;SDS011;61206;50.816;6.012;2022-07-06T15:07:40;1.97;;;1.40;;
73030;SDS011;61206;50.816;6.012;2022-07-06T15:10:06;1.63;;;1.30;;
73030;SDS011;61206;50.816;6.012;2022-07-06T15:12:33;2.53;;;1.40;;
73030;SDS011;61206;50.816;6.012;2022-07-06T15:20:10;2.95;;;1.88;;
73030;SDS011;61206;50.816;6.012;2022-07-06T15:22:38;2.10;;;1.70;;
73030;SDS011;61206;50.816;6.012;2022-07-06T15:25:04;2.93;;;1.60;;
73030;SDS011;61206;50.816;6.012;2022-07-06T15:27:32;2.67;;;1.50;;
73030;SDS011;61206;50.816;6.012;2022-07-06T15:29:58;2.65;;;1.70;;
73030;SDS011;61206;50.816;6.012;2022-07-06T15:32:24;1.53;;;1.43;;
73030;SDS011;61206;50.816;6.012;2022-07-06T15:34:49;2.45;;;1.75;;
73030;SDS011;61206;50.816;6.012;2022-07-06T15:37:18;3.25;;;1.70;;
73030;SDS011;61206;50.816;6.012;2022-07-06T15:39:43;3.10;;;1.70;;
73030;SDS011;61206;50.816;6.012;2022-07-06T15:42:09;2.00;;;1.60;;
73030;SDS011;61206;50.816;6.012;2022-07-06T15:44:35;2.75;;;1.65;;
73030;SDS011;61206;50.816;6.012;2022-07-06T15:47:06;3.10;;;1.60;;
73030;SDS011;61206;50.816;6.012;2022-07-06T15:49:32;1.90;;;1.70;;
73030;SDS011;61206;50.816;6.012;2022-07-06T15:52:02;2.38;;;1.77;;
73030;SDS011;61206;50.816;6.012;2022-07-06T15:54:27;2.00;;;1.50;;
73030;SDS011;61206;50.816;6.012;2022-07-06T15:56:56;2.40;;;1.77;;
73030;SDS011;61206;50.816;6.012;2022-07-06T15:59:22;2.43;;;1.87;;